Аэропорт: Бегишево. Набережные Челны, Нижнекамск

ICAO: UWKE

METAR:
2018/07/22 20:00
UWKE 222000Z 09005MPS CAVOK 14/09 Q1018 R03/090070 NOSIG RMK QFE746/0995
METAR:
2018/07/22 21:21
TAF UWKE 221945Z 2221/2321 08003G09MPS 9999 SCT020 
      TEMPO 2221/2304 09005G11MPS 3100 BR BKN011 
      TEMPO 2305/2315 09006G12MPS